Time;durP1;ratioP1;P1;durP2;ratioP2;P2;SDS_P1;SDS_P2;PMS_P1;PMS_P2;Temp;Humidity;BMP_temperature;BMP_pressure;BME280_temperature;BME280_humidity;BME280_pressure;Samples;Min_cycle;Max_cycle;Signal;HPM_P1;HPM_P2
2019/05/10 00:12:33;;;;;;;1.7;1.4;;;;;;;10.99;62.84375;94417.67;;;;
2019/05/10 00:13:39;;;;;;;1.7;1.4;;;;;;;10.99;62.84375;94417.67;;;;
2019/05/10 00:14:46;;;;;;;1.7;1.4;;;;;;;10.99;62.84375;94417.67;;;;
2019/05/10 00:15:47;;;;;;;1.7;1.4;;;;;;;10.99;62.84375;94417.67;;;;
2019/05/10 00:16:49;;;;;;;1.7;1.4;;;;;;;10.99;62.84375;94417.67;;;;
2019/05/10 00:17:50;;;;;;;1.7;1.4;;;;;;;10.99;62.84375;94417.67;;;;
2019/05/10 00:18:51;;;;;;;1.7;1.4;;;;;;;10.99;62.84375;94417.67;;;;
2019/05/10 00:19:52;;;;;;;1.7;1.4;;;;;;;10.99;62.84375;94417.67;;;;
2019/05/10 00:20:53;;;;;;;1.7;1.4;;;;;;;10.99;62.84375;94417.67;;;;
2019/05/10 00:21:54;;;;;;;1.7;1.4;;;;;;;10.99;62.84375;94417.67;;;;
2019/05/10 00:22:55;;;;;;;1.7;1.4;;;;;;;10.99;62.84375;94417.67;;;;
2019/05/10 00:23:56;;;;;;;1.7;1.4;;;;;;;10.99;62.84375;94417.67;;;;
2019/05/10 00:24:57;;;;;;;1.7;1.4;;;;;;;10.99;62.84375;94417.67;;;;
2019/05/10 00:25:58;;;;;;;1.7;1.4;;;;;;;10.99;62.84375;94417.67;;;;
2019/05/10 00:26:59;;;;;;;1.7;1.4;;;;;;;10.99;62.84375;94417.67;;;;
2019/05/10 00:28:00;;;;;;;1.7;1.4;;;;;;;10.99;62.84375;94417.67;;;;
2019/05/10 00:29:01;;;;;;;1.7;1.4;;;;;;;10.99;62.84375;94417.67;;;;
2019/05/10 00:30:02;;;;;;;1.7;1.4;;;;;;;10.99;62.84375;94417.67;;;;
2019/05/10 00:31:04;;;;;;;1.7;1.4;;;;;;;10.99;62.84375;94417.67;;;;
2019/05/10 00:32:05;;;;;;;1.7;1.4;;;;;;;10.99;62.84375;94417.67;;;;
2019/05/10 00:33:06;;;;;;;1.9;1.3;;;;;;;10.94;63.11719;94428.03;;;;
2019/05/10 00:34:07;;;;;;;1.9;1.3;;;;;;;10.94;63.11719;94428.03;;;;
2019/05/10 00:35:08;;;;;;;1.9;1.3;;;;;;;10.94;63.11719;94428.03;;;;
2019/05/10 00:36:09;;;;;;;1.9;1.3;;;;;;;10.94;63.11719;94428.03;;;;
2019/05/10 00:37:10;;;;;;;1.9;1.3;;;;;;;10.94;63.11719;94428.03;;;;
2019/05/10 00:38:11;;;;;;;1.9;1.3;;;;;;;10.94;63.11719;94428.03;;;;
2019/05/10 00:39:12;;;;;;;1.9;1.3;;;;;;;10.94;63.11719;94428.03;;;;
2019/05/10 00:40:13;;;;;;;1.9;1.3;;;;;;;10.94;63.11719;94428.03;;;;
2019/05/10 00:41:14;;;;;;;1.9;1.3;;;;;;;10.94;63.11719;94428.03;;;;
2019/05/10 00:42:15;;;;;;;1.9;1.3;;;;;;;10.94;63.11719;94428.03;;;;
2019/05/10 00:43:16;;;;;;;1.9;1.3;;;;;;;10.94;63.11719;94428.03;;;;
2019/05/10 00:44:17;;;;;;;2.1;1.3;;;;;;;11.02;63.0957;94435.27;;;;
2019/05/10 00:45:19;;;;;;;2.1;1.3;;;;;;;11.02;63.0957;94435.27;;;;
2019/05/10 00:46:20;;;;;;;2.1;1.3;;;;;;;11.02;63.0957;94435.27;;;;
2019/05/10 00:47:21;;;;;;;2.1;1.3;;;;;;;11.02;63.0957;94435.27;;;;
2019/05/10 00:48:22;;;;;;;2.1;1.3;;;;;;;11.02;63.0957;94435.27;;;;
2019/05/10 00:49:23;;;;;;;2.1;1.3;;;;;;;11.02;63.0957;94435.27;;;;
2019/05/10 00:50:24;;;;;;;2.1;1.3;;;;;;;11.02;63.0957;94435.27;;;;
2019/05/10 00:51:25;;;;;;;2.1;1.3;;;;;;;11.02;63.0957;94435.27;;;;
2019/05/10 00:52:26;;;;;;;2.1;1.3;;;;;;;11.02;63.0957;94435.27;;;;
2019/05/10 00:53:27;;;;;;;2.1;1.3;;;;;;;11.02;63.0957;94435.27;;;;
2019/05/10 00:54:28;;;;;;;1.6;1.3;;;;;;;10.96;63.33398;94447.09;;;;
2019/05/10 00:55:29;;;;;;;1.6;1.3;;;;;;;10.96;63.33398;94447.09;;;;
2019/05/10 00:56:30;;;;;;;1.6;1.3;;;;;;;10.96;63.33398;94447.09;;;;
2019/05/10 00:57:31;;;;;;;1.6;1.3;;;;;;;10.96;63.33398;94447.09;;;;
2019/05/10 00:58:32;;;;;;;1.6;1.3;;;;;;;10.96;63.33398;94447.09;;;;
2019/05/10 00:59:33;;;;;;;1.6;1.3;;;;;;;10.96;63.33398;94447.09;;;;
2019/05/10 01:00:34;;;;;;;1.6;1.3;;;;;;;10.96;63.33398;94447.09;;;;
2019/05/10 01:01:35;;;;;;;1.6;1.3;;;;;;;10.96;63.33398;94447.09;;;;
2019/05/10 01:02:36;;;;;;;1.6;1.3;;;;;;;10.96;63.33398;94447.09;;;;
2019/05/10 01:03:37;;;;;;;1.6;1.3;;;;;;;10.96;63.33398;94447.09;;;;
2019/05/10 01:04:38;;;;;;;1.6;1.3;;;;;;;10.96;63.33398;94447.09;;;;
2019/05/10 01:05:40;;;;;;;1.6;1.3;;;;;;;10.96;63.33398;94447.09;;;;
2019/05/10 01:06:41;;;;;;;1.6;1.3;;;;;;;10.96;63.33398;94447.09;;;;
2019/05/10 01:07:42;;;;;;;1.6;1.3;;;;;;;10.96;63.33398;94447.09;;;;
2019/05/10 01:08:43;;;;;;;1.6;1.3;;;;;;;10.96;63.33398;94447.09;;;;
2019/05/10 01:09:44;;;;;;;1.6;1.3;;;;;;;10.96;63.33398;94447.09;;;;
2019/05/10 01:10:45;;;;;;;1.6;1.3;;;;;;;10.96;63.33398;94447.09;;;;
2019/05/10 01:11:46;;;;;;;1.6;1.3;;;;;;;10.96;63.33398;94447.09;;;;
2019/05/10 01:12:47;;;;;;;1.6;1.3;;;;;;;10.96;63.33398;94447.09;;;;
2019/05/10 01:13:48;;;;;;;1.6;1.3;;;;;;;10.96;63.33398;94447.09;;;;
2019/05/10 01:14:49;;;;;;;1.6;1.3;;;;;;;10.96;63.33398;94447.09;;;;
2019/05/10 01:15:50;;;;;;;1.4;1.3;;;;;;;10.83;63.79883;94458.73;;;;
2019/05/10 01:16:51;;;;;;;1.4;1.3;;;;;;;10.83;63.79883;94458.73;;;;
2019/05/10 01:17:53;;;;;;;1.4;1.3;;;;;;;10.83;63.79883;94458.73;;;;
2019/05/10 01:18:54;;;;;;;1.4;1.3;;;;;;;10.83;63.79883;94458.73;;;;
2019/05/10 01:19:55;;;;;;;1.4;1.3;;;;;;;10.83;63.79883;94458.73;;;;
2019/05/10 01:20:56;;;;;;;1.4;1.3;;;;;;;10.83;63.79883;94458.73;;;;
2019/05/10 01:21:57;;;;;;;1.4;1.3;;;;;;;10.83;63.79883;94458.73;;;;
2019/05/10 01:22:58;;;;;;;1.4;1.3;;;;;;;10.83;63.79883;94458.73;;;;
2019/05/10 01:23:59;;;;;;;1.4;1.3;;;;;;;10.83;63.79883;94458.73;;;;
2019/05/10 01:25:00;;;;;;;1.4;1.3;;;;;;;10.83;63.79883;94458.73;;;;
2019/05/10 01:26:05;;;;;;;2.4;1.4;;;;;;;10.67;63.88281;94451.58;;;;
2019/05/10 01:27:06;;;;;;;2.4;1.4;;;;;;;10.67;63.88281;94451.58;;;;
2019/05/10 01:28:07;;;;;;;2.4;1.4;;;;;;;10.67;63.88281;94451.58;;;;
2019/05/10 01:29:08;;;;;;;2.4;1.4;;;;;;;10.67;63.88281;94451.58;;;;
2019/05/10 01:30:10;;;;;;;2.4;1.4;;;;;;;10.67;63.88281;94451.58;;;;
2019/05/10 01:31:11;;;;;;;2.4;1.4;;;;;;;10.67;63.88281;94451.58;;;;
2019/05/10 01:32:12;;;;;;;2.4;1.4;;;;;;;10.67;63.88281;94451.58;;;;
2019/05/10 01:33:13;;;;;;;2.4;1.4;;;;;;;10.67;63.88281;94451.58;;;;
2019/05/10 01:34:14;;;;;;;2.4;1.4;;;;;;;10.67;63.88281;94451.58;;;;
2019/05/10 01:35:15;;;;;;;2.4;1.4;;;;;;;10.67;63.88281;94451.58;;;;
2019/05/10 01:36:16;;;;;;;2.4;1.4;;;;;;;10.67;63.88281;94451.58;;;;
2019/05/10 01:37:18;;;;;;;2.6;1.5;;;;;;;10.29;64.26758;94453.91;;;;
2019/05/10 01:38:19;;;;;;;2.6;1.5;;;;;;;10.29;64.26758;94453.91;;;;
2019/05/10 01:39:20;;;;;;;2.6;1.5;;;;;;;10.29;64.26758;94453.91;;;;
2019/05/10 01:40:21;;;;;;;2.6;1.5;;;;;;;10.29;64.26758;94453.91;;;;
2019/05/10 01:41:22;;;;;;;2.6;1.5;;;;;;;10.29;64.26758;94453.91;;;;
2019/05/10 01:42:23;;;;;;;2.6;1.5;;;;;;;10.29;64.26758;94453.91;;;;
2019/05/10 01:43:24;;;;;;;2.6;1.5;;;;;;;10.29;64.26758;94453.91;;;;
2019/05/10 01:44:26;;;;;;;2.6;1.5;;;;;;;10.29;64.26758;94453.91;;;;
2019/05/10 01:45:27;;;;;;;2.6;1.5;;;;;;;10.29;64.26758;94453.91;;;;
2019/05/10 01:46:28;;;;;;;2.6;1.5;;;;;;;10.29;64.26758;94453.91;;;;
2019/05/10 01:47:29;;;;;;;1.8;1.25;;;;;;;9.91;64.8877;94466.94;;;;
2019/05/10 01:48:30;;;;;;;1.8;1.25;;;;;;;9.91;64.8877;94466.94;;;;
2019/05/10 01:49:31;;;;;;;1.8;1.25;;;;;;;9.91;64.8877;94466.94;;;;
2019/05/10 01:50:32;;;;;;;1.8;1.25;;;;;;;9.91;64.8877;94466.94;;;;
2019/05/10 01:51:33;;;;;;;1.8;1.25;;;;;;;9.91;64.8877;94466.94;;;;
2019/05/10 01:52:35;;;;;;;1.8;1.25;;;;;;;9.91;64.8877;94466.94;;;;
2019/05/10 01:53:36;;;;;;;1.8;1.25;;;;;;;9.91;64.8877;94466.94;;;;
2019/05/10 01:54:37;;;;;;;1.8;1.25;;;;;;;9.91;64.8877;94466.94;;;;
2019/05/10 01:55:38;;;;;;;1.8;1.25;;;;;;;9.91;64.8877;94466.94;;;;
2019/05/10 01:56:39;;;;;;;1.8;1.25;;;;;;;9.91;64.8877;94466.94;;;;
2019/05/10 01:57:40;;;;;;;2.1;1.4;;;;;;;9.56;65.50781;94481.44;;;;
2019/05/10 01:58:41;;;;;;;2.1;1.4;;;;;;;9.56;65.50781;94481.44;;;;
2019/05/10 01:59:42;;;;;;;2.1;1.4;;;;;;;9.56;65.50781;94481.44;;;;
2019/05/10 02:00:43;;;;;;;2.1;1.4;;;;;;;9.56;65.50781;94481.44;;;;
2019/05/10 02:01:44;;;;;;;2.1;1.4;;;;;;;9.56;65.50781;94481.44;;;;
2019/05/10 02:02:46;;;;;;;2.1;1.4;;;;;;;9.56;65.50781;94481.44;;;;
2019/05/10 02:03:47;;;;;;;2.1;1.4;;;;;;;9.56;65.50781;94481.44;;;;
2019/05/10 02:04:48;;;;;;;2.1;1.4;;;;;;;9.56;65.50781;94481.44;;;;
2019/05/10 02:05:49;;;;;;;2.1;1.4;;;;;;;9.56;65.50781;94481.44;;;;
2019/05/10 02:06:50;;;;;;;2.1;1.4;;;;;;;9.56;65.50781;94481.44;;;;
2019/05/10 02:07:51;;;;;;;2.1;1.4;;;;;;;9.56;65.50781;94481.44;;;;
2019/05/10 02:08:52;;;;;;;2.2;1.45;;;;;;;9.32;66.08203;94485.85;;;;
2019/05/10 02:09:54;;;;;;;2.2;1.45;;;;;;;9.32;66.08203;94485.85;;;;
2019/05/10 02:10:55;;;;;;;2.2;1.45;;;;;;;9.32;66.08203;94485.85;;;;
2019/05/10 02:11:56;;;;;;;2.2;1.45;;;;;;;9.32;66.08203;94485.85;;;;
2019/05/10 02:12:57;;;;;;;2.2;1.45;;;;;;;9.32;66.08203;94485.85;;;;
2019/05/10 02:13:58;;;;;;;2.2;1.45;;;;;;;9.32;66.08203;94485.85;;;;
2019/05/10 02:14:59;;;;;;;2.2;1.45;;;;;;;9.32;66.08203;94485.85;;;;
2019/05/10 02:16:00;;;;;;;2.2;1.45;;;;;;;9.32;66.08203;94485.85;;;;
2019/05/10 02:17:01;;;;;;;2.2;1.45;;;;;;;9.32;66.08203;94485.85;;;;
2019/05/10 02:18:02;;;;;;;2.2;1.45;;;;;;;9.32;66.08203;94485.85;;;;
2019/05/10 02:19:04;;;;;;;1.3;1.2;;;;;;;9.08;67.11328;94498.27;;;;
2019/05/10 02:20:05;;;;;;;1.3;1.2;;;;;;;9.08;67.11328;94498.27;;;;
2019/05/10 02:21:06;;;;;;;1.3;1.2;;;;;;;9.08;67.11328;94498.27;;;;
2019/05/10 02:22:07;;;;;;;1.3;1.2;;;;;;;9.08;67.11328;94498.27;;;;
2019/05/10 02:23:08;;;;;;;1.3;1.2;;;;;;;9.08;67.11328;94498.27;;;;
2019/05/10 02:24:09;;;;;;;1.3;1.2;;;;;;;9.08;67.11328;94498.27;;;;
2019/05/10 02:25:10;;;;;;;1.3;1.2;;;;;;;9.08;67.11328;94498.27;;;;
2019/05/10 02:26:11;;;;;;;1.3;1.2;;;;;;;9.08;67.11328;94498.27;;;;
2019/05/10 02:27:12;;;;;;;1.3;1.2;;;;;;;9.08;67.11328;94498.27;;;;
2019/05/10 02:28:13;;;;;;;1.3;1.2;;;;;;;9.08;67.11328;94498.27;;;;
2019/05/10 02:29:15;;;;;;;1.3;1.2;;;;;;;9.08;67.11328;94498.27;;;;
2019/05/10 02:30:16;;;;;;;2.3;1.5;;;;;;;8.92;67.44141;94504.47;;;;
2019/05/10 02:31:17;;;;;;;2.3;1.5;;;;;;;8.92;67.44141;94504.47;;;;
2019/05/10 02:32:18;;;;;;;2.3;1.5;;;;;;;8.92;67.44141;94504.47;;;;
2019/05/10 02:33:19;;;;;;;2.3;1.5;;;;;;;8.92;67.44141;94504.47;;;;
2019/05/10 02:34:20;;;;;;;2.3;1.5;;;;;;;8.92;67.44141;94504.47;;;;
2019/05/10 02:35:21;;;;;;;2.3;1.5;;;;;;;8.92;67.44141;94504.47;;;;
2019/05/10 02:36:22;;;;;;;2.3;1.5;;;;;;;8.92;67.44141;94504.47;;;;
2019/05/10 02:37:23;;;;;;;2.3;1.5;;;;;;;8.92;67.44141;94504.47;;;;
2019/05/10 02:38:24;;;;;;;2.3;1.5;;;;;;;8.92;67.44141;94504.47;;;;
2019/05/10 02:39:26;;;;;;;2.3;1.5;;;;;;;8.92;67.44141;94504.47;;;;
2019/05/10 02:40:27;;;;;;;2.1;1.5;;;;;;;8.72;67.60254;94523.38;;;;
2019/05/10 02:41:28;;;;;;;2.1;1.5;;;;;;;8.72;67.60254;94523.38;;;;
2019/05/10 02:42:29;;;;;;;2.1;1.5;;;;;;;8.72;67.60254;94523.38;;;;
2019/05/10 02:43:30;;;;;;;2.1;1.5;;;;;;;8.72;67.60254;94523.38;;;;
2019/05/10 02:44:31;;;;;;;2.1;1.5;;;;;;;8.72;67.60254;94523.38;;;;
2019/05/10 02:45:32;;;;;;;2.1;1.5;;;;;;;8.72;67.60254;94523.38;;;;
2019/05/10 02:46:34;;;;;;;2.1;1.5;;;;;;;8.72;67.60254;94523.38;;;;
2019/05/10 02:47:35;;;;;;;2.1;1.5;;;;;;;8.72;67.60254;94523.38;;;;
2019/05/10 02:48:36;;;;;;;2.1;1.5;;;;;;;8.72;67.60254;94523.38;;;;
2019/05/10 02:49:37;;;;;;;2.1;1.5;;;;;;;8.72;67.60254;94523.38;;;;
2019/05/10 02:50:39;;;;;;;2.1;1.5;;;;;;;8.72;67.60254;94523.38;;;;
2019/05/10 02:51:40;;;;;;;2.1;1.5;;;;;;;8.72;67.60254;94523.38;;;;
2019/05/10 02:52:41;;;;;;;2.1;1.5;;;;;;;8.72;67.60254;94523.38;;;;
2019/05/10 02:53:42;;;;;;;2.1;1.5;;;;;;;8.72;67.60254;94523.38;;;;
2019/05/10 02:54:43;;;;;;;2.1;1.5;;;;;;;8.72;67.60254;94523.38;;;;
2019/05/10 02:55:44;;;;;;;2.1;1.5;;;;;;;8.72;67.60254;94523.38;;;;
2019/05/10 02:56:45;;;;;;;2.1;1.5;;;;;;;8.72;67.60254;94523.38;;;;
2019/05/10 02:57:46;;;;;;;2.1;1.5;;;;;;;8.72;67.60254;94523.38;;;;
2019/05/10 02:58:47;;;;;;;2.1;1.5;;;;;;;8.72;67.60254;94523.38;;;;
2019/05/10 02:59:48;;;;;;;2.1;1.5;;;;;;;8.72;67.60254;94523.38;;;;
2019/05/10 03:00:49;;;;;;;2.1;1.5;;;;;;;8.72;67.60254;94523.38;;;;
2019/05/10 03:01:50;;;;;;;2.5;1.45;;;;;;;8.28;68.03613;94523.24;;;;
2019/05/10 03:02:52;;;;;;;2.5;1.45;;;;;;;8.28;68.03613;94523.24;;;;
2019/05/10 03:03:53;;;;;;;2.5;1.45;;;;;;;8.28;68.03613;94523.24;;;;
2019/05/10 03:04:54;;;;;;;2.5;1.45;;;;;;;8.28;68.03613;94523.24;;;;
2019/05/10 03:05:55;;;;;;;2.5;1.45;;;;;;;8.28;68.03613;94523.24;;;;
2019/05/10 03:06:56;;;;;;;2.5;1.45;;;;;;;8.28;68.03613;94523.24;;;;
2019/05/10 03:08:00;;;;;;;2.5;1.45;;;;;;;8.28;68.03613;94523.24;;;;
2019/05/10 03:09:02;;;;;;;2.5;1.45;;;;;;;8.28;68.03613;94523.24;;;;
2019/05/10 03:10:04;;;;;;;2.5;1.45;;;;;;;8.28;68.03613;94523.24;;;;
2019/05/10 03:11:08;;;;;;;2.5;1.45;;;;;;;8.28;68.03613;94523.24;;;;
2019/05/10 03:12:09;;;;;;;2.699999;1.6;;;;;;;8.03;68.40137;94509.27;;;;
2019/05/10 03:13:20;;;;;;;2.699999;1.6;;;;;;;8.03;68.40137;94509.27;;;;
2019/05/10 03:14:21;;;;;;;2.699999;1.6;;;;;;;8.03;68.40137;94509.27;;;;
2019/05/10 03:15:22;;;;;;;2.699999;1.6;;;;;;;8.03;68.40137;94509.27;;;;
2019/05/10 03:16:23;;;;;;;2.699999;1.6;;;;;;;8.03;68.40137;94509.27;;;;
2019/05/10 03:17:24;;;;;;;2.699999;1.6;;;;;;;8.03;68.40137;94509.27;;;;
2019/05/10 03:18:25;;;;;;;2.699999;1.6;;;;;;;8.03;68.40137;94509.27;;;;
2019/05/10 03:19:26;;;;;;;2.699999;1.6;;;;;;;8.03;68.40137;94509.27;;;;
2019/05/10 03:20:27;;;;;;;2.699999;1.6;;;;;;;8.03;68.40137;94509.27;;;;
2019/05/10 03:21:29;;;;;;;2.699999;1.6;;;;;;;8.03;68.40137;94509.27;;;;
2019/05/10 03:22:30;;;;;;;1.85;1.3;;;;;;;7.75;68.87988;94516.38;;;;
2019/05/10 03:23:40;;;;;;;1.85;1.3;;;;;;;7.75;68.87988;94516.38;;;;
2019/05/10 03:24:41;;;;;;;1.85;1.3;;;;;;;7.75;68.87988;94516.38;;;;
2019/05/10 03:25:42;;;;;;;1.85;1.3;;;;;;;7.75;68.87988;94516.38;;;;
2019/05/10 03:26:43;;;;;;;1.85;1.3;;;;;;;7.75;68.87988;94516.38;;;;
2019/05/10 03:27:44;;;;;;;1.85;1.3;;;;;;;7.75;68.87988;94516.38;;;;
2019/05/10 03:28:45;;;;;;;1.85;1.3;;;;;;;7.75;68.87988;94516.38;;;;
2019/05/10 03:29:46;;;;;;;1.85;1.3;;;;;;;7.75;68.87988;94516.38;;;;
2019/05/10 03:30:47;;;;;;;1.85;1.3;;;;;;;7.75;68.87988;94516.38;;;;
2019/05/10 03:31:48;;;;;;;1.85;1.3;;;;;;;7.75;68.87988;94516.38;;;;
2019/05/10 03:32:49;;;;;;;1.85;1.3;;;;;;;7.75;68.87988;94516.38;;;;
2019/05/10 03:33:50;;;;;;;3.199999;1.7;;;;;;;7.52;69.16406;94507.81;;;;
2019/05/10 03:34:51;;;;;;;3.199999;1.7;;;;;;;7.52;69.16406;94507.81;;;;
2019/05/10 03:35:52;;;;;;;3.199999;1.7;;;;;;;7.52;69.16406;94507.81;;;;
2019/05/10 03:36:53;;;;;;;3.199999;1.7;;;;;;;7.52;69.16406;94507.81;;;;
2019/05/10 03:37:55;;;;;;;3.199999;1.7;;;;;;;7.52;69.16406;94507.81;;;;
2019/05/10 03:38:56;;;;;;;3.199999;1.7;;;;;;;7.52;69.16406;94507.81;;;;
2019/05/10 03:39:57;;;;;;;3.199999;1.7;;;;;;;7.52;69.16406;94507.81;;;;
2019/05/10 03:40:58;;;;;;;3.199999;1.7;;;;;;;7.52;69.16406;94507.81;;;;
2019/05/10 03:41:59;;;;;;;3.199999;1.7;;;;;;;7.52;69.16406;94507.81;;;;
2019/05/10 03:43:00;;;;;;;3.199999;1.7;;;;;;;7.52;69.16406;94507.81;;;;
2019/05/10 03:44:01;;;;;;;3.15;1.65;;;;;;;7.24;69.5332;94501.03;;;;
2019/05/10 03:45:02;;;;;;;3.15;1.65;;;;;;;7.24;69.5332;94501.03;;;;
2019/05/10 03:46:05;;;;;;;3.15;1.65;;;;;;;7.24;69.5332;94501.03;;;;
2019/05/10 03:47:06;;;;;;;3.15;1.65;;;;;;;7.24;69.5332;94501.03;;;;
2019/05/10 03:48:07;;;;;;;3.15;1.65;;;;;;;7.24;69.5332;94501.03;;;;
2019/05/10 03:49:08;;;;;;;3.15;1.65;;;;;;;7.24;69.5332;94501.03;;;;
2019/05/10 03:50:09;;;;;;;3.15;1.65;;;;;;;7.24;69.5332;94501.03;;;;
2019/05/10 03:51:10;;;;;;;3.15;1.65;;;;;;;7.24;69.5332;94501.03;;;;
2019/05/10 03:52:11;;;;;;;3.15;1.65;;;;;;;7.24;69.5332;94501.03;;;;
2019/05/10 03:53:12;;;;;;;3.15;1.65;;;;;;;7.24;69.5332;94501.03;;;;
2019/05/10 03:54:13;;;;;;;4.15;1.8;;;;;;;7.01;69.76074;94524.25;;;;
2019/05/10 03:55:14;;;;;;;4.15;1.8;;;;;;;7.01;69.76074;94524.25;;;;
2019/05/10 03:56:15;;;;;;;4.15;1.8;;;;;;;7.01;69.76074;94524.25;;;;
2019/05/10 03:57:16;;;;;;;4.15;1.8;;;;;;;7.01;69.76074;94524.25;;;;
2019/05/10 03:58:17;;;;;;;4.15;1.8;;;;;;;7.01;69.76074;94524.25;;;;
2019/05/10 03:59:18;;;;;;;4.15;1.8;;;;;;;7.01;69.76074;94524.25;;;;
2019/05/10 04:00:20;;;;;;;4.15;1.8;;;;;;;7.01;69.76074;94524.25;;;;
2019/05/10 04:01:21;;;;;;;4.15;1.8;;;;;;;7.01;69.76074;94524.25;;;;
2019/05/10 04:02:22;;;;;;;4.15;1.8;;;;;;;7.01;69.76074;94524.25;;;;
2019/05/10 04:03:23;;;;;;;4.15;1.8;;;;;;;7.01;69.76074;94524.25;;;;
2019/05/10 04:04:24;;;;;;;4.15;1.8;;;;;;;7.01;69.76074;94524.25;;;;
2019/05/10 04:05:25;;;;;;;3.25;1.8;;;;;;;6.8;70.06738;94535.94;;;;
2019/05/10 04:06:26;;;;;;;3.25;1.8;;;;;;;6.8;70.06738;94535.94;;;;
2019/05/10 04:07:27;;;;;;;3.25;1.8;;;;;;;6.8;70.06738;94535.94;;;;
2019/05/10 04:08:28;;;;;;;3.25;1.8;;;;;;;6.8;70.06738;94535.94;;;;
2019/05/10 04:09:29;;;;;;;3.25;1.8;;;;;;;6.8;70.06738;94535.94;;;;
2019/05/10 04:10:30;;;;;;;3.25;1.8;;;;;;;6.8;70.06738;94535.94;;;;
2019/05/10 04:11:31;;;;;;;3.25;1.8;;;;;;;6.8;70.06738;94535.94;;;;
2019/05/10 04:12:32;;;;;;;3.25;1.8;;;;;;;6.8;70.06738;94535.94;;;;
2019/05/10 04:13:33;;;;;;;3.25;1.8;;;;;;;6.8;70.06738;94535.94;;;;
2019/05/10 04:14:34;;;;;;;3.25;1.8;;;;;;;6.8;70.06738;94535.94;;;;
2019/05/10 04:15:35;;;;;;;2.4;1.45;;;;;;;6.9;70.45605;94540.74;;;;
2019/05/10 04:16:37;;;;;;;2.4;1.45;;;;;;;6.9;70.45605;94540.74;;;;
2019/05/10 04:17:38;;;;;;;2.4;1.45;;;;;;;6.9;70.45605;94540.74;;;;
2019/05/10 04:18:39;;;;;;;2.4;1.45;;;;;;;6.9;70.45605;94540.74;;;;
2019/05/10 04:19:40;;;;;;;2.4;1.45;;;;;;;6.9;70.45605;94540.74;;;;
2019/05/10 04:20:41;;;;;;;2.4;1.45;;;;;;;6.9;70.45605;94540.74;;;;
2019/05/10 04:21:42;;;;;;;2.4;1.45;;;;;;;6.9;70.45605;94540.74;;;;
2019/05/10 04:22:43;;;;;;;2.4;1.45;;;;;;;6.9;70.45605;94540.74;;;;
2019/05/10 04:23:44;;;;;;;2.4;1.45;;;;;;;6.9;70.45605;94540.74;;;;
2019/05/10 04:24:45;;;;;;;2.4;1.45;;;;;;;6.9;70.45605;94540.74;;;;
2019/05/10 04:25:46;;;;;;;2.4;1.45;;;;;;;6.9;70.45605;94540.74;;;;
2019/05/10 04:26:47;;;;;;;2.5;1.7;;;;;;;7.11;70.9043;94547.81;;;;
2019/05/10 04:27:48;;;;;;;2.5;1.7;;;;;;;7.11;70.9043;94547.81;;;;
2019/05/10 04:28:49;;;;;;;2.5;1.7;;;;;;;7.11;70.9043;94547.81;;;;
2019/05/10 04:29:50;;;;;;;2.5;1.7;;;;;;;7.11;70.9043;94547.81;;;;
2019/05/10 04:30:51;;;;;;;2.5;1.7;;;;;;;7.11;70.9043;94547.81;;;;
2019/05/10 04:31:52;;;;;;;2.5;1.7;;;;;;;7.11;70.9043;94547.81;;;;
2019/05/10 04:32:53;;;;;;;2.5;1.7;;;;;;;7.11;70.9043;94547.81;;;;
2019/05/10 04:33:54;;;;;;;2.5;1.7;;;;;;;7.11;70.9043;94547.81;;;;
2019/05/10 04:34:56;;;;;;;2.5;1.7;;;;;;;7.11;70.9043;94547.81;;;;
2019/05/10 04:35:57;;;;;;;2.5;1.7;;;;;;;7.11;70.9043;94547.81;;;;
2019/05/10 04:36:58;;;;;;;4;1.8;;;;;;;7.51;70.94824;94555.05;;;;
2019/05/10 04:37:59;;;;;;;4;1.8;;;;;;;7.51;70.94824;94555.05;;;;
2019/05/10 04:39:00;;;;;;;4;1.8;;;;;;;7.51;70.94824;94555.05;;;;
2019/05/10 04:40:01;;;;;;;4;1.8;;;;;;;7.51;70.94824;94555.05;;;;
2019/05/10 04:41:02;;;;;;;4;1.8;;;;;;;7.51;70.94824;94555.05;;;;
2019/05/10 04:42:03;;;;;;;4;1.8;;;;;;;7.51;70.94824;94555.05;;;;
2019/05/10 04:43:04;;;;;;;4;1.8;;;;;;;7.51;70.94824;94555.05;;;;
2019/05/10 04:44:05;;;;;;;4;1.8;;;;;;;7.51;70.94824;94555.05;;;;
2019/05/10 04:45:06;;;;;;;4;1.8;;;;;;;7.51;70.94824;94555.05;;;;
2019/05/10 04:46:07;;;;;;;4;1.8;;;;;;;7.51;70.94824;94555.05;;;;
2019/05/10 04:47:08;;;;;;;2.05;1.85;;;;;;;7.9;70.4043;94559.25;;;;
2019/05/10 04:48:10;;;;;;;2.05;1.85;;;;;;;7.9;70.4043;94559.25;;;;
2019/05/10 04:49:11;;;;;;;2.05;1.85;;;;;;;7.9;70.4043;94559.25;;;;
2019/05/10 04:50:12;;;;;;;2.05;1.85;;;;;;;7.9;70.4043;94559.25;;;;
2019/05/10 04:51:13;;;;;;;2.05;1.85;;;;;;;7.9;70.4043;94559.25;;;;
2019/05/10 04:52:14;;;;;;;2.05;1.85;;;;;;;7.9;70.4043;94559.25;;;;
2019/05/10 04:53:15;;;;;;;2.05;1.85;;;;;;;7.9;70.4043;94559.25;;;;
2019/05/10 04:54:16;;;;;;;2.05;1.85;;;;;;;7.9;70.4043;94559.25;;;;
2019/05/10 04:55:17;;;;;;;2.05;1.85;;;;;;;7.9;70.4043;94559.25;;;;
2019/05/10 04:56:18;;;;;;;2.05;1.85;;;;;;;7.9;70.4043;94559.25;;;;
2019/05/10 04:57:19;;;;;;;2.05;1.85;;;;;;;7.9;70.4043;94559.25;;;;
2019/05/10 04:58:20;;;;;;;2.1;1.5;;;;;;;8.48;70.11523;94565.83;;;;
2019/05/10 04:59:21;;;;;;;2.1;1.5;;;;;;;8.48;70.11523;94565.83;;;;
2019/05/10 05:00:22;;;;;;;2.1;1.5;;;;;;;8.48;70.11523;94565.83;;;;
2019/05/10 05:01:23;;;;;;;2.1;1.5;;;;;;;8.48;70.11523;94565.83;;;;
2019/05/10 05:02:24;;;;;;;2.1;1.5;;;;;;;8.48;70.11523;94565.83;;;;
2019/05/10 05:03:25;;;;;;;2.1;1.5;;;;;;;8.48;70.11523;94565.83;;;;
2019/05/10 05:04:26;;;;;;;2.1;1.5;;;;;;;8.48;70.11523;94565.83;;;;
2019/05/10 05:05:27;;;;;;;2.1;1.5;;;;;;;8.48;70.11523;94565.83;;;;
2019/05/10 05:06:28;;;;;;;2.1;1.5;;;;;;;8.48;70.11523;94565.83;;;;
2019/05/10 05:07:29;;;;;;;2.1;1.5;;;;;;;8.48;70.11523;94565.83;;;;
2019/05/10 05:08:30;;;;;;;3.15;1.6;;;;;;;8.94;70.14746;94583.91;;;;
2019/05/10 05:09:31;;;;;;;3.15;1.6;;;;;;;8.94;70.14746;94583.91;;;;
2019/05/10 05:10:32;;;;;;;3.15;1.6;;;;;;;8.94;70.14746;94583.91;;;;
2019/05/10 05:11:33;;;;;;;3.15;1.6;;;;;;;8.94;70.14746;94583.91;;;;
2019/05/10 05:12:35;;;;;;;3.15;1.6;;;;;;;8.94;70.14746;94583.91;;;;
2019/05/10 05:13:36;;;;;;;3.15;1.6;;;;;;;8.94;70.14746;94583.91;;;;
2019/05/10 05:14:37;;;;;;;3.15;1.6;;;;;;;8.94;70.14746;94583.91;;;;
2019/05/10 05:15:38;;;;;;;3.15;1.6;;;;;;;8.94;70.14746;94583.91;;;;
2019/05/10 05:16:39;;;;;;;3.15;1.6;;;;;;;8.94;70.14746;94583.91;;;;
2019/05/10 05:17:40;;;;;;;3.15;1.6;;;;;;;8.94;70.14746;94583.91;;;;
2019/05/10 05:18:41;;;;;;;3.15;1.6;;;;;;;8.94;70.14746;94583.91;;;;
2019/05/10 05:19:42;;;;;;;1.8;1.4;;;;;;;9.98;69.4707;94582.17;;;;
2019/05/10 05:20:43;;;;;;;1.8;1.4;;;;;;;9.98;69.4707;94582.17;;;;
2019/05/10 05:21:44;;;;;;;1.8;1.4;;;;;;;9.98;69.4707;94582.17;;;;
2019/05/10 05:22:45;;;;;;;1.8;1.4;;;;;;;9.98;69.4707;94582.17;;;;
2019/05/10 05:23:46;;;;;;;1.8;1.4;;;;;;;9.98;69.4707;94582.17;;;;
2019/05/10 05:24:47;;;;;;;1.8;1.4;;;;;;;9.98;69.4707;94582.17;;;;
2019/05/10 05:25:48;;;;;;;1.8;1.4;;;;;;;9.98;69.4707;94582.17;;;;
2019/05/10 05:26:49;;;;;;;1.8;1.4;;;;;;;9.98;69.4707;94582.17;;;;
2019/05/10 05:27:50;;;;;;;1.8;1.4;;;;;;;9.98;69.4707;94582.17;;;;
2019/05/10 05:28:51;;;;;;;1.8;1.4;;;;;;;9.98;69.4707;94582.17;;;;
2019/05/10 05:29:52;;;;;;;6.35;1.8;;;;;;;10.95;68.56348;94588.48;;;;
2019/05/10 05:30:53;;;;;;;6.35;1.8;;;;;;;10.95;68.56348;94588.48;;;;
2019/05/10 05:31:54;;;;;;;6.35;1.8;;;;;;;10.95;68.56348;94588.48;;;;
2019/05/10 05:32:55;;;;;;;6.35;1.8;;;;;;;10.95;68.56348;94588.48;;;;
2019/05/10 05:33:56;;;;;;;6.35;1.8;;;;;;;10.95;68.56348;94588.48;;;;
2019/05/10 05:34:57;;;;;;;6.35;1.8;;;;;;;10.95;68.56348;94588.48;;;;
2019/05/10 05:35:58;;;;;;;6.35;1.8;;;;;;;10.95;68.56348;94588.48;;;;
2019/05/10 05:36:59;;;;;;;6.35;1.8;;;;;;;10.95;68.56348;94588.48;;;;
2019/05/10 05:38:00;;;;;;;6.35;1.8;;;;;;;10.95;68.56348;94588.48;;;;
2019/05/10 05:39:03;;;;;;;6.35;1.8;;;;;;;10.95;68.56348;94588.48;;;;
2019/05/10 05:40:05;;;;;;;3.5;1.8;;;;;;;11.86;67.79102;94603.22;;;;
2019/05/10 05:41:06;;;;;;;3.5;1.8;;;;;;;11.86;67.79102;94603.22;;;;
2019/05/10 05:42:07;;;;;;;3.5;1.8;;;;;;;11.86;67.79102;94603.22;;;;
2019/05/10 05:43:08;;;;;;;3.5;1.8;;;;;;;11.86;67.79102;94603.22;;;;
2019/05/10 05:44:10;;;;;;;3.5;1.8;;;;;;;11.86;67.79102;94603.22;;;;
2019/05/10 05:45:11;;;;;;;3.5;1.8;;;;;;;11.86;67.79102;94603.22;;;;
2019/05/10 05:46:12;;;;;;;3.5;1.8;;;;;;;11.86;67.79102;94603.22;;;;
2019/05/10 05:47:13;;;;;;;3.5;1.8;;;;;;;11.86;67.79102;94603.22;;;;
2019/05/10 05:48:14;;;;;;;3.5;1.8;;;;;;;11.86;67.79102;94603.22;;;;
2019/05/10 05:49:15;;;;;;;3.5;1.8;;;;;;;11.86;67.79102;94603.22;;;;
2019/05/10 05:50:16;;;;;;;3.5;1.8;;;;;;;11.86;67.79102;94603.22;;;;
2019/05/10 05:51:18;;;;;;;2.2;1.3;;;;;;;12.44;67.10645;94616.15;;;;
2019/05/10 05:52:19;;;;;;;2.2;1.3;;;;;;;12.44;67.10645;94616.15;;;;
2019/05/10 05:53:20;;;;;;;2.2;1.3;;;;;;;12.44;67.10645;94616.15;;;;
2019/05/10 05:54:21;;;;;;;2.2;1.3;;;;;;;12.44;67.10645;94616.15;;;;
2019/05/10 05:55:22;;;;;;;2.2;1.3;;;;;;;12.44;67.10645;94616.15;;;;
2019/05/10 05:56:23;;;;;;;2.2;1.3;;;;;;;12.44;67.10645;94616.15;;;;
2019/05/10 05:57:24;;;;;;;2.2;1.3;;;;;;;12.44;67.10645;94616.15;;;;
2019/05/10 05:58:25;;;;;;;2.2;1.3;;;;;;;12.44;67.10645;94616.15;;;;
2019/05/10 05:59:26;;;;;;;2.2;1.3;;;;;;;12.44;67.10645;94616.15;;;;
2019/05/10 06:00:27;;;;;;;2.2;1.3;;;;;;;12.44;67.10645;94616.15;;;;
2019/05/10 06:01:28;;;;;;;4.05;1.5;;;;;;;12.68;66.77441;94626.01;;;;
2019/05/10 06:02:29;;;;;;;4.05;1.5;;;;;;;12.68;66.77441;94626.01;;;;
2019/05/10 06:03:30;;;;;;;4.05;1.5;;;;;;;12.68;66.77441;94626.01;;;;
2019/05/10 06:04:31;;;;;;;4.05;1.5;;;;;;;12.68;66.77441;94626.01;;;;
2019/05/10 06:05:32;;;;;;;4.05;1.5;;;;;;;12.68;66.77441;94626.01;;;;
2019/05/10 06:06:33;;;;;;;4.05;1.5;;;;;;;12.68;66.77441;94626.01;;;;
2019/05/10 06:07:34;;;;;;;4.05;1.5;;;;;;;12.68;66.77441;94626.01;;;;
2019/05/10 06:08:35;;;;;;;4.05;1.5;;;;;;;12.68;66.77441;94626.01;;;;
2019/05/10 06:09:37;;;;;;;4.05;1.5;;;;;;;12.68;66.77441;94626.01;;;;